sensor_id;sensor_type;location;lat;lon;timestamp;P1;durP1;ratioP1;P2;durP2;ratioP2
70420;SDS011;57848;51.938;15.520;2023-09-08T00:01:42;10.27;;;5.50;;
70420;SDS011;57848;51.938;15.520;2023-09-08T00:04:07;12.07;;;5.37;;
70420;SDS011;57848;51.938;15.520;2023-09-08T00:06:32;12.17;;;5.60;;
70420;SDS011;57848;51.938;15.520;2023-09-08T00:08:58;12.93;;;5.57;;
70420;SDS011;57848;51.938;15.520;2023-09-08T00:11:23;12.87;;;5.73;;
70420;SDS011;57848;51.938;15.520;2023-09-08T00:13:48;10.63;;;5.23;;
70420;SDS011;57848;51.938;15.520;2023-09-08T00:16:15;11.55;;;4.82;;
70420;SDS011;57848;51.938;15.520;2023-09-08T00:18:40;12.53;;;5.97;;
70420;SDS011;57848;51.938;15.520;2023-09-08T00:21:06;10.15;;;5.43;;
70420;SDS011;57848;51.938;15.520;2023-09-08T00:23:31;13.37;;;5.80;;
70420;SDS011;57848;51.938;15.520;2023-09-08T00:25:56;10.93;;;5.53;;
70420;SDS011;57848;51.938;15.520;2023-09-08T00:28:23;12.90;;;5.53;;
70420;SDS011;57848;51.938;15.520;2023-09-08T00:30:48;11.53;;;5.80;;
70420;SDS011;57848;51.938;15.520;2023-09-08T00:33:14;12.23;;;6.07;;
70420;SDS011;57848;51.938;15.520;2023-09-08T00:35:40;11.27;;;6.23;;
70420;SDS011;57848;51.938;15.520;2023-09-08T00:38:09;13.02;;;6.57;;
70420;SDS011;57848;51.938;15.520;2023-09-08T00:40:35;10.32;;;5.25;;
70420;SDS011;57848;51.938;15.520;2023-09-08T00:43:00;11.60;;;6.33;;
70420;SDS011;57848;51.938;15.520;2023-09-08T00:45:26;10.83;;;5.60;;
70420;SDS011;57848;51.938;15.520;2023-09-08T00:47:54;13.15;;;6.40;;
70420;SDS011;57848;51.938;15.520;2023-09-08T00:50:20;10.80;;;5.07;;
70420;SDS011;57848;51.938;15.520;2023-09-08T00:52:46;10.80;;;5.13;;
70420;SDS011;57848;51.938;15.520;2023-09-08T00:55:11;12.47;;;5.53;;
70420;SDS011;57848;51.938;15.520;2023-09-08T00:57:37;12.20;;;5.70;;
70420;SDS011;57848;51.938;15.520;2023-09-08T01:00:02;11.43;;;5.47;;
70420;SDS011;57848;51.938;15.520;2023-09-08T01:02:31;10.60;;;5.33;;
70420;SDS011;57848;51.938;15.520;2023-09-08T01:04:57;14.38;;;5.85;;
70420;SDS011;57848;51.938;15.520;2023-09-08T01:07:24;11.00;;;5.93;;
70420;SDS011;57848;51.938;15.520;2023-09-08T01:09:52;11.32;;;5.82;;
70420;SDS011;57848;51.938;15.520;2023-09-08T01:12:18;12.43;;;5.87;;
70420;SDS011;57848;51.938;15.520;2023-09-08T01:14:44;11.70;;;5.50;;
70420;SDS011;57848;51.938;15.520;2023-09-08T01:17:09;13.53;;;5.70;;
70420;SDS011;57848;51.938;15.520;2023-09-08T01:19:37;12.80;;;6.22;;
70420;SDS011;57848;51.938;15.520;2023-09-08T01:27:32;12.02;;;6.18;;
70420;SDS011;57848;51.938;15.520;2023-09-08T01:30:00;12.00;;;6.30;;
70420;SDS011;57848;51.938;15.520;2023-09-08T01:32:27;12.57;;;6.13;;
70420;SDS011;57848;51.938;15.520;2023-09-08T01:34:54;13.02;;;6.95;;
70420;SDS011;57848;51.938;15.520;2023-09-08T01:37:22;12.50;;;6.50;;
70420;SDS011;57848;51.938;15.520;2023-09-08T01:39:48;13.65;;;6.97;;
70420;SDS011;57848;51.938;15.520;2023-09-08T01:42:13;11.70;;;5.50;;
70420;SDS011;57848;51.938;15.520;2023-09-08T01:44:39;12.67;;;6.60;;
70420;SDS011;57848;51.938;15.520;2023-09-08T01:47:04;12.50;;;7.93;;
70420;SDS011;57848;51.938;15.520;2023-09-08T01:49:29;13.83;;;6.77;;
70420;SDS011;57848;51.938;15.520;2023-09-08T01:51:55;13.10;;;7.13;;
70420;SDS011;57848;51.938;15.520;2023-09-08T01:54:21;13.85;;;6.70;;
70420;SDS011;57848;51.938;15.520;2023-09-08T01:56:46;16.63;;;6.60;;
70420;SDS011;57848;51.938;15.520;2023-09-08T01:59:12;10.63;;;6.32;;
70420;SDS011;57848;51.938;15.520;2023-09-08T02:01:37;12.30;;;6.27;;
70420;SDS011;57848;51.938;15.520;2023-09-08T02:04:02;13.47;;;6.70;;
70420;SDS011;57848;51.938;15.520;2023-09-08T02:06:28;12.97;;;7.13;;
70420;SDS011;57848;51.938;15.520;2023-09-08T02:08:53;12.57;;;6.93;;
70420;SDS011;57848;51.938;15.520;2023-09-08T02:11:18;12.13;;;6.93;;
70420;SDS011;57848;51.938;15.520;2023-09-08T02:13:44;12.80;;;7.00;;
70420;SDS011;57848;51.938;15.520;2023-09-08T02:16:16;15.13;;;7.47;;
70420;SDS011;57848;51.938;15.520;2023-09-08T02:18:42;11.97;;;7.30;;
70420;SDS011;57848;51.938;15.520;2023-09-08T02:21:08;14.93;;;7.50;;
70420;SDS011;57848;51.938;15.520;2023-09-08T02:23:34;16.02;;;7.18;;
70420;SDS011;57848;51.938;15.520;2023-09-08T02:25:59;12.10;;;7.20;;
70420;SDS011;57848;51.938;15.520;2023-09-08T02:28:25;12.73;;;7.20;;
70420;SDS011;57848;51.938;15.520;2023-09-08T02:30:51;14.68;;;6.90;;
70420;SDS011;57848;51.938;15.520;2023-09-08T02:33:17;16.97;;;7.10;;
70420;SDS011;57848;51.938;15.520;2023-09-08T02:35:42;13.53;;;6.93;;
70420;SDS011;57848;51.938;15.520;2023-09-08T02:38:09;15.52;;;7.53;;
70420;SDS011;57848;51.938;15.520;2023-09-08T02:40:34;13.38;;;6.90;;
70420;SDS011;57848;51.938;15.520;2023-09-08T02:43:00;11.87;;;7.17;;
70420;SDS011;57848;51.938;15.520;2023-09-08T02:45:27;13.85;;;7.43;;
70420;SDS011;57848;51.938;15.520;2023-09-08T02:47:53;15.23;;;7.70;;
70420;SDS011;57848;51.938;15.520;2023-09-08T02:50:18;19.42;;;8.18;;
70420;SDS011;57848;51.938;15.520;2023-09-08T02:52:44;15.23;;;7.57;;
70420;SDS011;57848;51.938;15.520;2023-09-08T02:55:10;12.55;;;7.40;;
70420;SDS011;57848;51.938;15.520;2023-09-08T02:57:36;14.38;;;7.28;;
70420;SDS011;57848;51.938;15.520;2023-09-08T03:00:02;13.33;;;7.20;;
70420;SDS011;57848;51.938;15.520;2023-09-08T03:02:30;13.02;;;7.50;;
70420;SDS011;57848;51.938;15.520;2023-09-08T03:04:55;12.18;;;7.07;;
70420;SDS011;57848;51.938;15.520;2023-09-08T03:07:21;14.63;;;7.23;;
70420;SDS011;57848;51.938;15.520;2023-09-08T03:09:47;13.48;;;6.97;;
70420;SDS011;57848;51.938;15.520;2023-09-08T03:12:13;12.85;;;7.15;;
70420;SDS011;57848;51.938;15.520;2023-09-08T03:14:39;11.93;;;6.87;;
70420;SDS011;57848;51.938;15.520;2023-09-08T03:17:05;16.08;;;6.85;;
70420;SDS011;57848;51.938;15.520;2023-09-08T03:19:31;12.90;;;7.03;;
70420;SDS011;57848;51.938;15.520;2023-09-08T03:21:56;15.10;;;7.73;;
70420;SDS011;57848;51.938;15.520;2023-09-08T03:24:21;13.17;;;7.63;;
70420;SDS011;57848;51.938;15.520;2023-09-08T03:26:47;13.70;;;6.90;;
70420;SDS011;57848;51.938;15.520;2023-09-08T03:29:12;15.73;;;8.50;;
70420;SDS011;57848;51.938;15.520;2023-09-08T03:31:37;14.30;;;7.53;;
70420;SDS011;57848;51.938;15.520;2023-09-08T03:34:03;13.57;;;6.97;;
70420;SDS011;57848;51.938;15.520;2023-09-08T03:36:28;13.63;;;7.90;;
70420;SDS011;57848;51.938;15.520;2023-09-08T03:38:56;12.27;;;7.10;;
70420;SDS011;57848;51.938;15.520;2023-09-08T03:41:23;14.15;;;7.43;;
70420;SDS011;57848;51.938;15.520;2023-09-08T03:43:49;16.63;;;7.50;;
70420;SDS011;57848;51.938;15.520;2023-09-08T03:46:14;14.30;;;7.57;;
70420;SDS011;57848;51.938;15.520;2023-09-08T03:48:40;15.33;;;7.47;;
70420;SDS011;57848;51.938;15.520;2023-09-08T03:51:05;16.13;;;7.50;;
70420;SDS011;57848;51.938;15.520;2023-09-08T03:53:30;15.83;;;7.57;;
70420;SDS011;57848;51.938;15.520;2023-09-08T03:55:56;12.80;;;7.05;;
70420;SDS011;57848;51.938;15.520;2023-09-08T03:58:22;12.87;;;8.10;;
70420;SDS011;57848;51.938;15.520;2023-09-08T04:00:47;15.30;;;7.55;;
70420;SDS011;57848;51.938;15.520;2023-09-08T04:03:13;15.43;;;7.03;;
70420;SDS011;57848;51.938;15.520;2023-09-08T04:05:38;13.17;;;7.50;;
70420;SDS011;57848;51.938;15.520;2023-09-08T04:08:04;13.63;;;7.97;;
70420;SDS011;57848;51.938;15.520;2023-09-08T04:10:30;13.77;;;7.80;;
70420;SDS011;57848;51.938;15.520;2023-09-08T04:12:55;13.90;;;7.85;;
70420;SDS011;57848;51.938;15.520;2023-09-08T04:15:20;16.07;;;8.70;;
70420;SDS011;57848;51.938;15.520;2023-09-08T04:17:46;17.20;;;7.87;;
70420;SDS011;57848;51.938;15.520;2023-09-08T04:20:12;15.50;;;7.80;;
70420;SDS011;57848;51.938;15.520;2023-09-08T04:22:39;17.10;;;8.20;;
70420;SDS011;57848;51.938;15.520;2023-09-08T04:25:05;13.77;;;8.05;;
70420;SDS011;57848;51.938;15.520;2023-09-08T04:27:32;16.10;;;7.32;;
70420;SDS011;57848;51.938;15.520;2023-09-08T04:29:58;15.70;;;7.87;;
70420;SDS011;57848;51.938;15.520;2023-09-08T04:32:24;13.73;;;8.43;;
70420;SDS011;57848;51.938;15.520;2023-09-08T04:34:50;16.25;;;8.48;;
70420;SDS011;57848;51.938;15.520;2023-09-08T04:37:16;13.85;;;7.80;;
70420;SDS011;57848;51.938;15.520;2023-09-08T04:39:42;13.07;;;8.18;;
70420;SDS011;57848;51.938;15.520;2023-09-08T04:42:09;15.17;;;8.37;;
70420;SDS011;57848;51.938;15.520;2023-09-08T04:44:35;13.50;;;7.72;;
70420;SDS011;57848;51.938;15.520;2023-09-08T04:47:00;16.07;;;8.30;;
70420;SDS011;57848;51.938;15.520;2023-09-08T04:49:26;19.30;;;8.73;;
70420;SDS011;57848;51.938;15.520;2023-09-08T04:51:52;15.30;;;8.33;;
70420;SDS011;57848;51.938;15.520;2023-09-08T04:54:19;19.83;;;9.13;;
70420;SDS011;57848;51.938;15.520;2023-09-08T04:56:46;17.77;;;8.10;;
70420;SDS011;57848;51.938;15.520;2023-09-08T04:59:12;17.57;;;9.23;;
70420;SDS011;57848;51.938;15.520;2023-09-08T05:01:38;14.55;;;8.65;;
70420;SDS011;57848;51.938;15.520;2023-09-08T05:04:06;15.90;;;8.67;;
70420;SDS011;57848;51.938;15.520;2023-09-08T05:06:31;15.85;;;9.05;;
70420;SDS011;57848;51.938;15.520;2023-09-08T05:08:57;18.93;;;9.20;;
70420;SDS011;57848;51.938;15.520;2023-09-08T05:11:24;18.10;;;7.83;;
70420;SDS011;57848;51.938;15.520;2023-09-08T05:13:51;15.90;;;8.23;;
70420;SDS011;57848;51.938;15.520;2023-09-08T05:16:16;14.73;;;8.57;;
70420;SDS011;57848;51.938;15.520;2023-09-08T05:18:48;18.85;;;8.65;;
70420;SDS011;57848;51.938;15.520;2023-09-08T05:21:14;17.95;;;8.65;;
70420;SDS011;57848;51.938;15.520;2023-09-08T05:23:40;14.82;;;8.32;;
70420;SDS011;57848;51.938;15.520;2023-09-08T05:26:05;17.83;;;9.00;;
70420;SDS011;57848;51.938;15.520;2023-09-08T05:28:31;14.52;;;7.70;;
70420;SDS011;57848;51.938;15.520;2023-09-08T05:30:57;13.37;;;8.43;;
70420;SDS011;57848;51.938;15.520;2023-09-08T05:33:23;16.58;;;8.20;;
70420;SDS011;57848;51.938;15.520;2023-09-08T05:35:49;15.20;;;8.00;;
70420;SDS011;57848;51.938;15.520;2023-09-08T05:38:15;15.13;;;7.40;;
70420;SDS011;57848;51.938;15.520;2023-09-08T05:40:40;17.70;;;9.17;;
70420;SDS011;57848;51.938;15.520;2023-09-08T05:43:06;14.23;;;7.83;;
70420;SDS011;57848;51.938;15.520;2023-09-08T05:45:32;14.45;;;7.72;;
70420;SDS011;57848;51.938;15.520;2023-09-08T05:47:58;13.65;;;7.68;;
70420;SDS011;57848;51.938;15.520;2023-09-08T05:50:23;14.03;;;8.60;;
70420;SDS011;57848;51.938;15.520;2023-09-08T05:52:50;15.57;;;7.55;;
70420;SDS011;57848;51.938;15.520;2023-09-08T05:55:16;14.80;;;7.70;;
70420;SDS011;57848;51.938;15.520;2023-09-08T05:57:42;15.80;;;7.37;;
70420;SDS011;57848;51.938;15.520;2023-09-08T06:00:08;14.65;;;7.38;;
70420;SDS011;57848;51.938;15.520;2023-09-08T06:02:38;16.90;;;7.73;;
70420;SDS011;57848;51.938;15.520;2023-09-08T06:05:04;15.73;;;8.40;;
70420;SDS011;57848;51.938;15.520;2023-09-08T06:07:31;17.25;;;7.95;;
70420;SDS011;57848;51.938;15.520;2023-09-08T06:09:56;11.60;;;6.90;;
70420;SDS011;57848;51.938;15.520;2023-09-08T06:12:22;13.20;;;7.88;;
70420;SDS011;57848;51.938;15.520;2023-09-08T06:14:47;18.63;;;8.23;;
70420;SDS011;57848;51.938;15.520;2023-09-08T06:17:12;14.27;;;7.40;;
70420;SDS011;57848;51.938;15.520;2023-09-08T06:19:38;13.63;;;7.50;;
70420;SDS011;57848;51.938;15.520;2023-09-08T06:22:03;13.13;;;7.70;;
70420;SDS011;57848;51.938;15.520;2023-09-08T06:24:28;11.95;;;7.10;;
70420;SDS011;57848;51.938;15.520;2023-09-08T06:26:54;11.60;;;6.80;;
70420;SDS011;57848;51.938;15.520;2023-09-08T06:29:20;13.80;;;8.07;;
70420;SDS011;57848;51.938;15.520;2023-09-08T06:31:45;18.58;;;8.25;;
70420;SDS011;57848;51.938;15.520;2023-09-08T06:34:11;14.10;;;7.97;;
70420;SDS011;57848;51.938;15.520;2023-09-08T06:36:36;15.27;;;7.57;;
70420;SDS011;57848;51.938;15.520;2023-09-08T06:39:02;15.07;;;8.27;;
70420;SDS011;57848;51.938;15.520;2023-09-08T06:41:28;21.10;;;10.57;;
70420;SDS011;57848;51.938;15.520;2023-09-08T06:43:56;18.00;;;9.75;;
70420;SDS011;57848;51.938;15.520;2023-09-08T06:46:22;17.05;;;10.13;;
70420;SDS011;57848;51.938;15.520;2023-09-08T06:48:47;18.37;;;10.80;;
70420;SDS011;57848;51.938;15.520;2023-09-08T06:51:13;18.23;;;10.53;;
70420;SDS011;57848;51.938;15.520;2023-09-08T06:53:39;18.98;;;9.13;;
70420;SDS011;57848;51.938;15.520;2023-09-08T06:56:05;17.13;;;8.73;;
70420;SDS011;57848;51.938;15.520;2023-09-08T06:58:31;16.48;;;8.15;;
70420;SDS011;57848;51.938;15.520;2023-09-08T07:00:57;16.03;;;8.93;;
70420;SDS011;57848;51.938;15.520;2023-09-08T07:03:23;17.58;;;9.75;;
70420;SDS011;57848;51.938;15.520;2023-09-08T07:05:49;16.13;;;8.10;;
70420;SDS011;57848;51.938;15.520;2023-09-08T07:08:15;18.13;;;9.90;;
70420;SDS011;57848;51.938;15.520;2023-09-08T07:10:40;16.83;;;8.93;;
70420;SDS011;57848;51.938;15.520;2023-09-08T07:13:06;13.73;;;7.93;;
70420;SDS011;57848;51.938;15.520;2023-09-08T07:15:32;16.43;;;8.17;;
70420;SDS011;57848;51.938;15.520;2023-09-08T07:17:57;15.37;;;8.20;;
70420;SDS011;57848;51.938;15.520;2023-09-08T07:20:23;16.90;;;7.33;;
70420;SDS011;57848;51.938;15.520;2023-09-08T07:22:48;13.77;;;8.00;;
70420;SDS011;57848;51.938;15.520;2023-09-08T07:25:13;13.45;;;7.55;;
70420;SDS011;57848;51.938;15.520;2023-09-08T07:27:39;13.43;;;7.13;;
70420;SDS011;57848;51.938;15.520;2023-09-08T07:30:05;13.73;;;7.20;;
70420;SDS011;57848;51.938;15.520;2023-09-08T07:32:32;14.20;;;7.03;;
70420;SDS011;57848;51.938;15.520;2023-09-08T07:34:57;11.68;;;6.00;;
70420;SDS011;57848;51.938;15.520;2023-09-08T07:37:23;14.50;;;6.90;;
70420;SDS011;57848;51.938;15.520;2023-09-08T07:39:50;13.45;;;6.68;;
70420;SDS011;57848;51.938;15.520;2023-09-08T07:42:17;13.50;;;6.55;;
70420;SDS011;57848;51.938;15.520;2023-09-08T07:44:43;16.27;;;7.20;;
70420;SDS011;57848;51.938;15.520;2023-09-08T07:47:09;14.05;;;7.55;;
70420;SDS011;57848;51.938;15.520;2023-09-08T07:49:35;13.03;;;6.37;;
70420;SDS011;57848;51.938;15.520;2023-09-08T07:52:00;12.27;;;6.50;;
70420;SDS011;57848;51.938;15.520;2023-09-08T07:54:26;11.27;;;6.30;;
70420;SDS011;57848;51.938;15.520;2023-09-08T07:56:51;13.20;;;6.70;;
70420;SDS011;57848;51.938;15.520;2023-09-08T07:59:16;12.10;;;6.47;;
70420;SDS011;57848;51.938;15.520;2023-09-08T08:01:42;14.63;;;6.53;;
70420;SDS011;57848;51.938;15.520;2023-09-08T08:04:07;11.00;;;6.22;;
70420;SDS011;57848;51.938;15.520;2023-09-08T08:06:33;14.20;;;6.57;;
70420;SDS011;57848;51.938;15.520;2023-09-08T08:08:58;13.03;;;6.90;;
70420;SDS011;57848;51.938;15.520;2023-09-08T08:11:23;12.23;;;6.83;;
70420;SDS011;57848;51.938;15.520;2023-09-08T08:13:49;12.10;;;6.20;;
70420;SDS011;57848;51.938;15.520;2023-09-08T08:16:14;12.63;;;7.27;;
70420;SDS011;57848;51.938;15.520;2023-09-08T08:18:39;11.55;;;6.13;;
70420;SDS011;57848;51.938;15.520;2023-09-08T08:21:05;11.23;;;6.20;;
70420;SDS011;57848;51.938;15.520;2023-09-08T08:23:30;16.03;;;6.20;;
70420;SDS011;57848;51.938;15.520;2023-09-08T08:25:56;9.57;;;5.73;;
70420;SDS011;57848;51.938;15.520;2023-09-08T08:28:22;12.95;;;6.57;;
70420;SDS011;57848;51.938;15.520;2023-09-08T08:30:48;15.27;;;6.13;;
70420;SDS011;57848;51.938;15.520;2023-09-08T08:33:14;12.47;;;6.03;;
70420;SDS011;57848;51.938;15.520;2023-09-08T08:35:39;13.07;;;6.60;;
70420;SDS011;57848;51.938;15.520;2023-09-08T08:38:05;13.55;;;6.20;;
70420;SDS011;57848;51.938;15.520;2023-09-08T08:40:30;11.77;;;5.90;;
70420;SDS011;57848;51.938;15.520;2023-09-08T08:42:57;10.60;;;6.13;;
70420;SDS011;57848;51.938;15.520;2023-09-08T08:45:24;11.50;;;5.95;;
70420;SDS011;57848;51.938;15.520;2023-09-08T08:47:50;11.53;;;6.73;;
70420;SDS011;57848;51.938;15.520;2023-09-08T08:50:16;13.27;;;6.00;;
70420;SDS011;57848;51.938;15.520;2023-09-08T08:52:42;10.65;;;6.53;;
70420;SDS011;57848;51.938;15.520;2023-09-08T08:55:08;10.65;;;6.40;;
70420;SDS011;57848;51.938;15.520;2023-09-08T08:57:35;14.43;;;6.20;;
70420;SDS011;57848;51.938;15.520;2023-09-08T09:00:02;10.60;;;6.38;;
70420;SDS011;57848;51.938;15.520;2023-09-08T09:02:32;11.80;;;6.80;;
70420;SDS011;57848;51.938;15.520;2023-09-08T09:04:58;16.45;;;6.55;;
70420;SDS011;57848;51.938;15.520;2023-09-08T09:07:24;13.70;;;7.37;;
70420;SDS011;57848;51.938;15.520;2023-09-08T09:09:51;11.88;;;7.07;;
70420;SDS011;57848;51.938;15.520;2023-09-08T09:12:17;13.15;;;6.78;;
70420;SDS011;57848;51.938;15.520;2023-09-08T09:14:46;12.33;;;5.90;;
70420;SDS011;57848;51.938;15.520;2023-09-08T09:17:14;11.40;;;6.97;;
70420;SDS011;57848;51.938;15.520;2023-09-08T09:19:40;15.63;;;6.93;;
70420;SDS011;57848;51.938;15.520;2023-09-08T09:22:06;12.68;;;6.40;;
70420;SDS011;57848;51.938;15.520;2023-09-08T09:27:02;10.38;;;5.65;;
70420;SDS011;57848;51.938;15.520;2023-09-08T09:29:30;14.45;;;5.60;;
70420;SDS011;57848;51.938;15.520;2023-09-08T09:31:57;12.10;;;5.73;;
70420;SDS011;57848;51.938;15.520;2023-09-08T09:34:27;12.93;;;6.05;;
70420;SDS011;57848;51.938;15.520;2023-09-08T09:36:53;11.87;;;6.37;;
70420;SDS011;57848;51.938;15.520;2023-09-08T09:39:19;10.25;;;5.72;;
70420;SDS011;57848;51.938;15.520;2023-09-08T09:41:46;13.65;;;6.10;;
70420;SDS011;57848;51.938;15.520;2023-09-08T09:44:12;13.30;;;6.63;;
70420;SDS011;57848;51.938;15.520;2023-09-08T09:46:38;11.50;;;6.23;;
70420;SDS011;57848;51.938;15.520;2023-09-08T09:49:03;10.07;;;5.10;;
70420;SDS011;57848;51.938;15.520;2023-09-08T09:51:28;12.13;;;6.70;;
70420;SDS011;57848;51.938;15.520;2023-09-08T09:53:54;13.93;;;6.90;;
70420;SDS011;57848;51.938;15.520;2023-09-08T09:56:20;11.27;;;6.60;;
70420;SDS011;57848;51.938;15.520;2023-09-08T09:58:48;13.30;;;6.63;;
70420;SDS011;57848;51.938;15.520;2023-09-08T10:01:14;13.00;;;6.60;;
70420;SDS011;57848;51.938;15.520;2023-09-08T10:03:40;10.15;;;6.07;;
70420;SDS011;57848;51.938;15.520;2023-09-08T10:06:06;11.93;;;6.40;;
70420;SDS011;57848;51.938;15.520;2023-09-08T10:08:33;12.90;;;6.28;;
70420;SDS011;57848;51.938;15.520;2023-09-08T10:11:06;11.77;;;5.67;;
70420;SDS011;57848;51.938;15.520;2023-09-08T10:13:33;11.05;;;5.35;;
70420;SDS011;57848;51.938;15.520;2023-09-08T10:16:08;8.50;;;4.85;;
70420;SDS011;57848;51.938;15.520;2023-09-08T10:18:34;11.95;;;5.20;;
70420;SDS011;57848;51.938;15.520;2023-09-08T10:21:00;11.23;;;5.43;;
70420;SDS011;57848;51.938;15.520;2023-09-08T10:23:36;10.43;;;5.63;;
70420;SDS011;57848;51.938;15.520;2023-09-08T10:26:06;10.93;;;5.65;;
70420;SDS011;57848;51.938;15.520;2023-09-08T10:28:35;10.52;;;5.70;;
70420;SDS011;57848;51.938;15.520;2023-09-08T10:31:01;9.77;;;5.32;;
70420;SDS011;57848;51.938;15.520;2023-09-08T10:33:28;10.68;;;5.50;;
70420;SDS011;57848;51.938;15.520;2023-09-08T10:35:55;10.87;;;5.63;;
70420;SDS011;57848;51.938;15.520;2023-09-08T10:38:28;11.15;;;5.93;;
70420;SDS011;57848;51.938;15.520;2023-09-08T10:46:28;11.48;;;5.55;;
70420;SDS011;57848;51.938;15.520;2023-09-08T10:48:56;10.57;;;4.63;;
70420;SDS011;57848;51.938;15.520;2023-09-08T10:51:27;10.60;;;5.20;;
70420;SDS011;57848;51.938;15.520;2023-09-08T10:53:52;9.70;;;5.93;;
70420;SDS011;57848;51.938;15.520;2023-09-08T10:56:18;10.70;;;6.22;;
70420;SDS011;57848;51.938;15.520;2023-09-08T10:58:43;11.17;;;5.73;;
70420;SDS011;57848;51.938;15.520;2023-09-08T11:01:17;11.77;;;5.68;;
70420;SDS011;57848;51.938;15.520;2023-09-08T11:03:47;10.10;;;5.33;;
70420;SDS011;57848;51.938;15.520;2023-09-08T11:06:18;9.27;;;5.32;;
70420;SDS011;57848;51.938;15.520;2023-09-08T11:08:44;10.35;;;5.68;;
70420;SDS011;57848;51.938;15.520;2023-09-08T11:11:11;10.63;;;4.70;;
70420;SDS011;57848;51.938;15.520;2023-09-08T11:13:37;10.85;;;4.53;;
70420;SDS011;57848;51.938;15.520;2023-09-08T11:16:05;10.43;;;4.73;;
70420;SDS011;57848;51.938;15.520;2023-09-08T11:18:31;10.18;;;4.85;;
70420;SDS011;57848;51.938;15.520;2023-09-08T11:20:59;8.93;;;4.75;;
70420;SDS011;57848;51.938;15.520;2023-09-08T11:23:27;9.05;;;5.20;;
70420;SDS011;57848;51.938;15.520;2023-09-08T11:25:53;10.15;;;4.80;;
70420;SDS011;57848;51.938;15.520;2023-09-08T11:28:19;9.57;;;5.10;;
70420;SDS011;57848;51.938;15.520;2023-09-08T11:30:46;11.23;;;5.05;;
70420;SDS011;57848;51.938;15.520;2023-09-08T11:35:41;10.50;;;5.50;;
70420;SDS011;57848;51.938;15.520;2023-09-08T11:38:10;9.20;;;5.28;;
70420;SDS011;57848;51.938;15.520;2023-09-08T11:40:36;10.00;;;5.50;;
70420;SDS011;57848;51.938;15.520;2023-09-08T11:43:02;10.50;;;5.45;;
70420;SDS011;57848;51.938;15.520;2023-09-08T11:45:28;9.00;;;5.07;;
70420;SDS011;57848;51.938;15.520;2023-09-08T11:47:55;10.80;;;4.80;;
70420;SDS011;57848;51.938;15.520;2023-09-08T11:50:21;10.02;;;4.90;;
70420;SDS011;57848;51.938;15.520;2023-09-08T11:52:48;8.73;;;4.95;;
70420;SDS011;57848;51.938;15.520;2023-09-08T11:55:15;9.45;;;4.88;;
70420;SDS011;57848;51.938;15.520;2023-09-08T11:57:44;8.10;;;4.70;;
70420;SDS011;57848;51.938;15.520;2023-09-08T12:00:11;12.07;;;5.00;;
70420;SDS011;57848;51.938;15.520;2023-09-08T12:02:41;10.52;;;5.57;;
70420;SDS011;57848;51.938;15.520;2023-09-08T12:05:28;10.43;;;5.53;;
70420;SDS011;57848;51.938;15.520;2023-09-08T12:07:55;8.82;;;5.28;;
70420;SDS011;57848;51.938;15.520;2023-09-08T12:10:24;8.80;;;5.45;;
70420;SDS011;57848;51.938;15.520;2023-09-08T12:12:54;10.43;;;5.20;;
70420;SDS011;57848;51.938;15.520;2023-09-08T12:18:18;9.30;;;4.83;;
70420;SDS011;57848;51.938;15.520;2023-09-08T12:20:44;8.70;;;4.82;;
70420;SDS011;57848;51.938;15.520;2023-09-08T12:23:20;10.48;;;5.07;;
70420;SDS011;57848;51.938;15.520;2023-09-08T12:25:51;10.50;;;4.95;;
70420;SDS011;57848;51.938;15.520;2023-09-08T12:28:18;14.57;;;7.28;;
70420;SDS011;57848;51.938;15.520;2023-09-08T12:30:45;10.10;;;5.50;;
70420;SDS011;57848;51.938;15.520;2023-09-08T12:33:11;11.32;;;5.05;;
70420;SDS011;57848;51.938;15.520;2023-09-08T12:35:38;10.10;;;5.38;;
70420;SDS011;57848;51.938;15.520;2023-09-08T12:38:04;9.60;;;5.20;;
70420;SDS011;57848;51.938;15.520;2023-09-08T12:40:33;11.05;;;5.38;;
70420;SDS011;57848;51.938;15.520;2023-09-08T12:42:59;10.23;;;4.55;;
70420;SDS011;57848;51.938;15.520;2023-09-08T12:45:25;9.63;;;4.83;;
70420;SDS011;57848;51.938;15.520;2023-09-08T12:47:51;12.93;;;4.95;;
70420;SDS011;57848;51.938;15.520;2023-09-08T12:50:17;8.30;;;4.47;;
70420;SDS011;57848;51.938;15.520;2023-09-08T12:52:43;13.77;;;5.25;;
70420;SDS011;57848;51.938;15.520;2023-09-08T12:55:09;10.13;;;4.80;;
70420;SDS011;57848;51.938;15.520;2023-09-08T12:57:35;11.02;;;5.55;;
70420;SDS011;57848;51.938;15.520;2023-09-08T13:00:01;9.98;;;5.10;;
70420;SDS011;57848;51.938;15.520;2023-09-08T13:02:27;9.82;;;4.78;;
70420;SDS011;57848;51.938;15.520;2023-09-08T13:04:53;10.20;;;5.17;;
70420;SDS011;57848;51.938;15.520;2023-09-08T13:07:20;13.15;;;5.15;;
70420;SDS011;57848;51.938;15.520;2023-09-08T13:09:45;9.70;;;4.93;;
70420;SDS011;57848;51.938;15.520;2023-09-08T13:12:11;10.65;;;5.45;;
70420;SDS011;57848;51.938;15.520;2023-09-08T13:14:38;12.07;;;5.43;;
70420;SDS011;57848;51.938;15.520;2023-09-08T13:17:04;8.93;;;4.72;;
70420;SDS011;57848;51.938;15.520;2023-09-08T13:21:56;11.37;;;5.03;;
70420;SDS011;57848;51.938;15.520;2023-09-08T13:24:22;10.40;;;5.18;;
70420;SDS011;57848;51.938;15.520;2023-09-08T13:26:47;9.97;;;4.73;;
70420;SDS011;57848;51.938;15.520;2023-09-08T13:29:13;11.03;;;5.57;;
70420;SDS011;57848;51.938;15.520;2023-09-08T13:31:38;11.30;;;5.30;;
70420;SDS011;57848;51.938;15.520;2023-09-08T13:34:03;11.10;;;4.78;;
70420;SDS011;57848;51.938;15.520;2023-09-08T13:36:29;11.57;;;5.37;;
70420;SDS011;57848;51.938;15.520;2023-09-08T13:38:55;10.93;;;5.13;;
70420;SDS011;57848;51.938;15.520;2023-09-08T13:41:20;11.93;;;5.20;;
70420;SDS011;57848;51.938;15.520;2023-09-08T13:43:45;10.30;;;5.13;;
70420;SDS011;57848;51.938;15.520;2023-09-08T13:46:11;9.23;;;5.23;;
70420;SDS011;57848;51.938;15.520;2023-09-08T13:48:36;9.90;;;5.33;;
70420;SDS011;57848;51.938;15.520;2023-09-08T13:51:02;11.20;;;5.00;;
70420;SDS011;57848;51.938;15.520;2023-09-08T13:53:28;11.23;;;4.95;;
70420;SDS011;57848;51.938;15.520;2023-09-08T13:55:55;11.55;;;4.90;;
70420;SDS011;57848;51.938;15.520;2023-09-08T13:58:21;10.20;;;4.93;;
70420;SDS011;57848;51.938;15.520;2023-09-08T14:00:46;12.50;;;4.70;;
70420;SDS011;57848;51.938;15.520;2023-09-08T14:03:13;9.63;;;4.60;;
70420;SDS011;57848;51.938;15.520;2023-09-08T14:05:39;11.03;;;4.73;;
70420;SDS011;57848;51.938;15.520;2023-09-08T14:08:05;9.00;;;4.72;;
70420;SDS011;57848;51.938;15.520;2023-09-08T14:10:30;8.30;;;4.33;;
70420;SDS011;57848;51.938;15.520;2023-09-08T14:12:55;9.17;;;4.60;;
70420;SDS011;57848;51.938;15.520;2023-09-08T14:15:21;10.70;;;5.30;;
70420;SDS011;57848;51.938;15.520;2023-09-08T14:17:46;9.60;;;4.77;;
70420;SDS011;57848;51.938;15.520;2023-09-08T14:20:11;9.67;;;4.23;;
70420;SDS011;57848;51.938;15.520;2023-09-08T14:22:37;9.00;;;4.90;;
70420;SDS011;57848;51.938;15.520;2023-09-08T14:25:03;12.45;;;5.57;;
70420;SDS011;57848;51.938;15.520;2023-09-08T14:27:29;10.43;;;4.63;;
70420;SDS011;57848;51.938;15.520;2023-09-08T14:29:55;10.93;;;5.17;;
70420;SDS011;57848;51.938;15.520;2023-09-08T14:32:20;10.50;;;5.50;;
70420;SDS011;57848;51.938;15.520;2023-09-08T14:34:45;11.00;;;5.23;;
70420;SDS011;57848;51.938;15.520;2023-09-08T14:37:11;11.00;;;5.10;;
70420;SDS011;57848;51.938;15.520;2023-09-08T14:39:36;10.93;;;5.60;;